sensor_id;sensor_type;location;lat;lon;timestamp;P1;durP1;ratioP1;P2;durP2;ratioP2
47966;SDS011;33733;52.456;13.620;2023-05-23T00:01:08;5.45;;;1.80;;
47966;SDS011;33733;52.456;13.620;2023-05-23T00:03:35;3.95;;;0.95;;
47966;SDS011;33733;52.456;13.620;2023-05-23T00:06:04;4.03;;;1.35;;
47966;SDS011;33733;52.456;13.620;2023-05-23T00:08:31;4.32;;;1.38;;
47966;SDS011;33733;52.456;13.620;2023-05-23T00:10:58;3.80;;;1.33;;
47966;SDS011;33733;52.456;13.620;2023-05-23T00:13:24;3.10;;;0.90;;
47966;SDS011;33733;52.456;13.620;2023-05-23T00:15:52;4.10;;;1.08;;
47966;SDS011;33733;52.456;13.620;2023-05-23T00:18:18;4.95;;;2.10;;
47966;SDS011;33733;52.456;13.620;2023-05-23T00:20:45;4.05;;;1.10;;
47966;SDS011;33733;52.456;13.620;2023-05-23T00:23:12;4.80;;;1.33;;
47966;SDS011;33733;52.456;13.620;2023-05-23T00:25:44;4.10;;;1.10;;
47966;SDS011;33733;52.456;13.620;2023-05-23T00:28:13;3.75;;;1.25;;
47966;SDS011;33733;52.456;13.620;2023-05-23T00:30:41;3.95;;;1.20;;
47966;SDS011;33733;52.456;13.620;2023-05-23T00:33:08;4.88;;;1.75;;
47966;SDS011;33733;52.456;13.620;2023-05-23T00:35:34;4.00;;;1.30;;
47966;SDS011;33733;52.456;13.620;2023-05-23T00:38:01;4.13;;;1.45;;
47966;SDS011;33733;52.456;13.620;2023-05-23T00:40:28;4.32;;;1.33;;
47966;SDS011;33733;52.456;13.620;2023-05-23T00:42:55;4.15;;;1.15;;
47966;SDS011;33733;52.456;13.620;2023-05-23T00:45:21;4.65;;;1.17;;
47966;SDS011;33733;52.456;13.620;2023-05-23T00:47:48;4.88;;;1.48;;
47966;SDS011;33733;52.456;13.620;2023-05-23T00:50:17;4.63;;;1.60;;
47966;SDS011;33733;52.456;13.620;2023-05-23T00:52:45;3.83;;;1.35;;
47966;SDS011;33733;52.456;13.620;2023-05-23T00:55:12;4.43;;;1.52;;
47966;SDS011;33733;52.456;13.620;2023-05-23T00:57:40;4.40;;;1.38;;
47966;SDS011;33733;52.456;13.620;2023-05-23T01:00:13;3.55;;;0.90;;
47966;SDS011;33733;52.456;13.620;2023-05-23T01:02:42;3.65;;;1.13;;
47966;SDS011;33733;52.456;13.620;2023-05-23T01:05:11;4.47;;;1.85;;
47966;SDS011;33733;52.456;13.620;2023-05-23T01:10:07;4.10;;;0.80;;
47966;SDS011;33733;52.456;13.620;2023-05-23T01:15:20;4.63;;;1.08;;
47966;SDS011;33733;52.456;13.620;2023-05-23T01:18:09;4.72;;;1.23;;
47966;SDS011;33733;52.456;13.620;2023-05-23T01:20:41;3.92;;;1.20;;
47966;SDS011;33733;52.456;13.620;2023-05-23T01:23:28;4.38;;;1.17;;
47966;SDS011;33733;52.456;13.620;2023-05-23T01:29:00;4.75;;;1.38;;
47966;SDS011;33733;52.456;13.620;2023-05-23T01:31:35;3.88;;;1.08;;
47966;SDS011;33733;52.456;13.620;2023-05-23T01:34:05;5.00;;;1.40;;
47966;SDS011;33733;52.456;13.620;2023-05-23T01:36:33;4.05;;;1.10;;
47966;SDS011;33733;52.456;13.620;2023-05-23T01:39:01;4.57;;;1.05;;
47966;SDS011;33733;52.456;13.620;2023-05-23T01:41:28;4.03;;;1.38;;
47966;SDS011;33733;52.456;13.620;2023-05-23T01:43:54;5.22;;;1.30;;
47966;SDS011;33733;52.456;13.620;2023-05-23T01:46:21;4.50;;;1.42;;
47966;SDS011;33733;52.456;13.620;2023-05-23T01:48:48;4.78;;;1.55;;
47966;SDS011;33733;52.456;13.620;2023-05-23T01:51:16;7.63;;;1.60;;
47966;SDS011;33733;52.456;13.620;2023-05-23T01:53:43;4.20;;;1.17;;
47966;SDS011;33733;52.456;13.620;2023-05-23T01:56:10;5.03;;;1.50;;
47966;SDS011;33733;52.456;13.620;2023-05-23T01:58:36;6.22;;;1.40;;
47966;SDS011;33733;52.456;13.620;2023-05-23T02:01:03;5.22;;;1.33;;
47966;SDS011;33733;52.456;13.620;2023-05-23T02:03:32;4.88;;;1.58;;
47966;SDS011;33733;52.456;13.620;2023-05-23T02:05:59;4.45;;;1.48;;
47966;SDS011;33733;52.456;13.620;2023-05-23T02:08:26;5.40;;;1.23;;
47966;SDS011;33733;52.456;13.620;2023-05-23T02:10:53;4.40;;;1.45;;
47966;SDS011;33733;52.456;13.620;2023-05-23T02:13:19;4.55;;;1.25;;
47966;SDS011;33733;52.456;13.620;2023-05-23T02:15:46;4.13;;;1.13;;
47966;SDS011;33733;52.456;13.620;2023-05-23T02:18:14;3.80;;;1.10;;
47966;SDS011;33733;52.456;13.620;2023-05-23T02:20:41;4.95;;;1.63;;
47966;SDS011;33733;52.456;13.620;2023-05-23T02:23:08;4.65;;;1.45;;
47966;SDS011;33733;52.456;13.620;2023-05-23T02:25:36;6.45;;;1.23;;
47966;SDS011;33733;52.456;13.620;2023-05-23T02:28:05;4.63;;;1.30;;
47966;SDS011;33733;52.456;13.620;2023-05-23T02:30:35;4.47;;;1.30;;
47966;SDS011;33733;52.456;13.620;2023-05-23T02:33:05;3.75;;;1.10;;
47966;SDS011;33733;52.456;13.620;2023-05-23T02:35:33;4.80;;;1.60;;
47966;SDS011;33733;52.456;13.620;2023-05-23T02:38:02;4.90;;;1.60;;
47966;SDS011;33733;52.456;13.620;2023-05-23T02:40:29;5.05;;;1.67;;
47966;SDS011;33733;52.456;13.620;2023-05-23T02:42:56;4.88;;;1.73;;
47966;SDS011;33733;52.456;13.620;2023-05-23T02:45:23;4.72;;;1.08;;
47966;SDS011;33733;52.456;13.620;2023-05-23T02:47:50;4.22;;;1.42;;
47966;SDS011;33733;52.456;13.620;2023-05-23T02:50:16;5.45;;;1.40;;
47966;SDS011;33733;52.456;13.620;2023-05-23T02:52:43;5.82;;;1.58;;
47966;SDS011;33733;52.456;13.620;2023-05-23T02:55:10;4.95;;;1.63;;
47966;SDS011;33733;52.456;13.620;2023-05-23T02:57:41;4.80;;;1.25;;
47966;SDS011;33733;52.456;13.620;2023-05-23T03:00:08;4.15;;;1.70;;
47966;SDS011;33733;52.456;13.620;2023-05-23T03:02:35;4.50;;;1.40;;
47966;SDS011;33733;52.456;13.620;2023-05-23T03:05:02;3.83;;;1.10;;
47966;SDS011;33733;52.456;13.620;2023-05-23T03:07:31;3.83;;;1.15;;
47966;SDS011;33733;52.456;13.620;2023-05-23T03:10:02;4.00;;;1.10;;
47966;SDS011;33733;52.456;13.620;2023-05-23T03:12:29;4.25;;;1.63;;
47966;SDS011;33733;52.456;13.620;2023-05-23T03:14:55;5.75;;;1.20;;
47966;SDS011;33733;52.456;13.620;2023-05-23T03:17:23;4.82;;;1.42;;
47966;SDS011;33733;52.456;13.620;2023-05-23T03:19:50;4.50;;;1.38;;
47966;SDS011;33733;52.456;13.620;2023-05-23T03:22:17;4.13;;;1.30;;
47966;SDS011;33733;52.456;13.620;2023-05-23T03:24:44;4.90;;;1.00;;
47966;SDS011;33733;52.456;13.620;2023-05-23T03:27:11;6.05;;;1.77;;
47966;SDS011;33733;52.456;13.620;2023-05-23T03:29:38;5.07;;;1.45;;
47966;SDS011;33733;52.456;13.620;2023-05-23T03:32:05;4.47;;;1.23;;
47966;SDS011;33733;52.456;13.620;2023-05-23T03:34:32;4.40;;;1.30;;
47966;SDS011;33733;52.456;13.620;2023-05-23T03:36:59;5.70;;;1.23;;
47966;SDS011;33733;52.456;13.620;2023-05-23T03:39:26;4.20;;;1.33;;
47966;SDS011;33733;52.456;13.620;2023-05-23T03:41:55;3.95;;;1.40;;
47966;SDS011;33733;52.456;13.620;2023-05-23T03:44:22;5.15;;;1.40;;
47966;SDS011;33733;52.456;13.620;2023-05-23T03:46:48;4.47;;;1.60;;
47966;SDS011;33733;52.456;13.620;2023-05-23T03:49:16;3.60;;;1.33;;
47966;SDS011;33733;52.456;13.620;2023-05-23T03:51:43;4.30;;;1.58;;
47966;SDS011;33733;52.456;13.620;2023-05-23T03:54:13;5.80;;;1.70;;
47966;SDS011;33733;52.456;13.620;2023-05-23T03:56:40;4.95;;;1.45;;
47966;SDS011;33733;52.456;13.620;2023-05-23T03:59:07;4.10;;;1.35;;
47966;SDS011;33733;52.456;13.620;2023-05-23T04:01:34;5.38;;;1.60;;
47966;SDS011;33733;52.456;13.620;2023-05-23T04:04:01;5.72;;;2.08;;
47966;SDS011;33733;52.456;13.620;2023-05-23T04:06:33;5.07;;;1.48;;
47966;SDS011;33733;52.456;13.620;2023-05-23T04:09:01;4.60;;;1.58;;
47966;SDS011;33733;52.456;13.620;2023-05-23T04:11:30;4.60;;;1.30;;
47966;SDS011;33733;52.456;13.620;2023-05-23T04:13:57;3.92;;;1.30;;
47966;SDS011;33733;52.456;13.620;2023-05-23T04:16:24;4.80;;;1.23;;
47966;SDS011;33733;52.456;13.620;2023-05-23T04:18:51;5.68;;;1.63;;
47966;SDS011;33733;52.456;13.620;2023-05-23T04:21:19;4.30;;;1.30;;
47966;SDS011;33733;52.456;13.620;2023-05-23T04:24:00;5.20;;;1.48;;
47966;SDS011;33733;52.456;13.620;2023-05-23T04:28:55;6.47;;;1.65;;
47966;SDS011;33733;52.456;13.620;2023-05-23T04:31:22;5.00;;;2.00;;
47966;SDS011;33733;52.456;13.620;2023-05-23T04:33:50;4.53;;;1.95;;
47966;SDS011;33733;52.456;13.620;2023-05-23T04:36:18;4.10;;;1.35;;
47966;SDS011;33733;52.456;13.620;2023-05-23T04:38:50;4.65;;;1.40;;
47966;SDS011;33733;52.456;13.620;2023-05-23T04:41:17;5.10;;;1.80;;
47966;SDS011;33733;52.456;13.620;2023-05-23T04:44:08;4.65;;;1.65;;
47966;SDS011;33733;52.456;13.620;2023-05-23T04:46:39;5.15;;;1.67;;
47966;SDS011;33733;52.456;13.620;2023-05-23T04:49:29;4.65;;;1.35;;
47966;SDS011;33733;52.456;13.620;2023-05-23T04:51:59;4.28;;;1.52;;
47966;SDS011;33733;52.456;13.620;2023-05-23T04:54:27;5.22;;;1.42;;
47966;SDS011;33733;52.456;13.620;2023-05-23T04:56:57;4.13;;;1.30;;
47966;SDS011;33733;52.456;13.620;2023-05-23T04:59:26;5.32;;;1.33;;
47966;SDS011;33733;52.456;13.620;2023-05-23T05:01:54;4.55;;;1.48;;
47966;SDS011;33733;52.456;13.620;2023-05-23T05:04:21;5.68;;;2.05;;
47966;SDS011;33733;52.456;13.620;2023-05-23T05:06:49;4.38;;;1.30;;
47966;SDS011;33733;52.456;13.620;2023-05-23T05:09:16;4.63;;;1.40;;
47966;SDS011;33733;52.456;13.620;2023-05-23T05:11:45;28.25;;;13.20;;
47966;SDS011;33733;52.456;13.620;2023-05-23T05:14:12;8.18;;;3.10;;
47966;SDS011;33733;52.456;13.620;2023-05-23T05:16:39;6.10;;;1.95;;
47966;SDS011;33733;52.456;13.620;2023-05-23T05:19:07;7.60;;;1.48;;
47966;SDS011;33733;52.456;13.620;2023-05-23T05:21:34;5.60;;;1.48;;
47966;SDS011;33733;52.456;13.620;2023-05-23T05:24:02;5.28;;;1.42;;
47966;SDS011;33733;52.456;13.620;2023-05-23T05:26:30;5.03;;;1.38;;
47966;SDS011;33733;52.456;13.620;2023-05-23T05:28:57;5.25;;;1.58;;
47966;SDS011;33733;52.456;13.620;2023-05-23T05:31:25;4.43;;;1.85;;
47966;SDS011;33733;52.456;13.620;2023-05-23T05:33:52;5.18;;;1.95;;
47966;SDS011;33733;52.456;13.620;2023-05-23T05:36:19;4.93;;;1.60;;
47966;SDS011;33733;52.456;13.620;2023-05-23T05:38:48;4.93;;;1.42;;
47966;SDS011;33733;52.456;13.620;2023-05-23T05:41:18;4.60;;;1.40;;
47966;SDS011;33733;52.456;13.620;2023-05-23T05:43:50;6.90;;;1.80;;
47966;SDS011;33733;52.456;13.620;2023-05-23T05:46:16;5.43;;;2.22;;
47966;SDS011;33733;52.456;13.620;2023-05-23T05:48:44;4.82;;;1.42;;
47966;SDS011;33733;52.456;13.620;2023-05-23T05:51:12;6.07;;;2.00;;
47966;SDS011;33733;52.456;13.620;2023-05-23T05:53:40;7.82;;;2.30;;
47966;SDS011;33733;52.456;13.620;2023-05-23T05:56:07;5.93;;;2.47;;
47966;SDS011;33733;52.456;13.620;2023-05-23T05:58:36;17.73;;;7.78;;
47966;SDS011;33733;52.456;13.620;2023-05-23T06:01:09;6.93;;;2.70;;
47966;SDS011;33733;52.456;13.620;2023-05-23T06:03:35;4.18;;;1.33;;
47966;SDS011;33733;52.456;13.620;2023-05-23T06:06:03;4.97;;;1.65;;
47966;SDS011;33733;52.456;13.620;2023-05-23T06:08:30;6.03;;;2.17;;
47966;SDS011;33733;52.456;13.620;2023-05-23T06:10:57;4.88;;;1.95;;
47966;SDS011;33733;52.456;13.620;2023-05-23T06:13:25;7.80;;;1.83;;
47966;SDS011;33733;52.456;13.620;2023-05-23T06:15:52;5.68;;;1.85;;
47966;SDS011;33733;52.456;13.620;2023-05-23T06:18:20;6.25;;;1.77;;
47966;SDS011;33733;52.456;13.620;2023-05-23T06:20:48;4.43;;;1.48;;
47966;SDS011;33733;52.456;13.620;2023-05-23T06:23:15;4.90;;;1.77;;
47966;SDS011;33733;52.456;13.620;2023-05-23T06:25:44;5.88;;;2.13;;
47966;SDS011;33733;52.456;13.620;2023-05-23T06:28:11;6.30;;;1.98;;
47966;SDS011;33733;52.456;13.620;2023-05-23T06:30:37;6.97;;;2.13;;
47966;SDS011;33733;52.456;13.620;2023-05-23T06:33:06;5.45;;;1.77;;
47966;SDS011;33733;52.456;13.620;2023-05-23T06:35:33;7.85;;;1.92;;
47966;SDS011;33733;52.456;13.620;2023-05-23T06:38:00;4.97;;;1.88;;
47966;SDS011;33733;52.456;13.620;2023-05-23T06:40:27;5.05;;;1.67;;
47966;SDS011;33733;52.456;13.620;2023-05-23T06:42:53;5.78;;;2.15;;
47966;SDS011;33733;52.456;13.620;2023-05-23T06:45:37;5.82;;;1.65;;
47966;SDS011;33733;52.456;13.620;2023-05-23T06:48:04;5.32;;;1.88;;
47966;SDS011;33733;52.456;13.620;2023-05-23T06:53:01;6.72;;;1.92;;
47966;SDS011;33733;52.456;13.620;2023-05-23T06:55:28;5.25;;;1.95;;
47966;SDS011;33733;52.456;13.620;2023-05-23T06:57:56;6.07;;;1.88;;
47966;SDS011;33733;52.456;13.620;2023-05-23T07:00:23;8.60;;;2.25;;
47966;SDS011;33733;52.456;13.620;2023-05-23T07:03:07;8.20;;;2.20;;
47966;SDS011;33733;52.456;13.620;2023-05-23T07:05:34;6.60;;;1.73;;
47966;SDS011;33733;52.456;13.620;2023-05-23T07:08:08;7.03;;;2.05;;
47966;SDS011;33733;52.456;13.620;2023-05-23T07:10:37;6.05;;;2.10;;
47966;SDS011;33733;52.456;13.620;2023-05-23T07:13:20;5.03;;;2.28;;
47966;SDS011;33733;52.456;13.620;2023-05-23T07:15:48;6.18;;;2.15;;
47966;SDS011;33733;52.456;13.620;2023-05-23T07:18:14;6.70;;;2.42;;
47966;SDS011;33733;52.456;13.620;2023-05-23T07:20:41;6.38;;;1.90;;
47966;SDS011;33733;52.456;13.620;2023-05-23T07:23:13;4.85;;;1.73;;
47966;SDS011;33733;52.456;13.620;2023-05-23T07:25:40;7.00;;;2.58;;
47966;SDS011;33733;52.456;13.620;2023-05-23T07:30:56;4.95;;;2.38;;
47966;SDS011;33733;52.456;13.620;2023-05-23T07:33:24;6.10;;;2.38;;
47966;SDS011;33733;52.456;13.620;2023-05-23T07:35:54;6.18;;;2.42;;
47966;SDS011;33733;52.456;13.620;2023-05-23T07:38:21;5.82;;;2.38;;
47966;SDS011;33733;52.456;13.620;2023-05-23T07:40:47;6.10;;;2.55;;
47966;SDS011;33733;52.456;13.620;2023-05-23T07:43:32;5.35;;;2.15;;
47966;SDS011;33733;52.456;13.620;2023-05-23T07:45:59;6.85;;;2.35;;
47966;SDS011;33733;52.456;13.620;2023-05-23T07:48:26;6.30;;;2.38;;
47966;SDS011;33733;52.456;13.620;2023-05-23T07:50:52;6.25;;;2.40;;
47966;SDS011;33733;52.456;13.620;2023-05-23T07:53:22;7.35;;;2.92;;
47966;SDS011;33733;52.456;13.620;2023-05-23T07:55:48;5.80;;;2.25;;
47966;SDS011;33733;52.456;13.620;2023-05-23T07:58:16;6.53;;;2.20;;
47966;SDS011;33733;52.456;13.620;2023-05-23T08:00:43;5.43;;;2.22;;
47966;SDS011;33733;52.456;13.620;2023-05-23T08:03:24;6.35;;;2.33;;
47966;SDS011;33733;52.456;13.620;2023-05-23T08:06:01;6.00;;;2.40;;
47966;SDS011;33733;52.456;13.620;2023-05-23T08:08:28;5.63;;;2.50;;
47966;SDS011;33733;52.456;13.620;2023-05-23T08:10:56;6.55;;;2.60;;
47966;SDS011;33733;52.456;13.620;2023-05-23T08:13:29;8.10;;;2.42;;
47966;SDS011;33733;52.456;13.620;2023-05-23T08:16:15;5.88;;;2.40;;
47966;SDS011;33733;52.456;13.620;2023-05-23T08:18:43;5.63;;;2.00;;
47966;SDS011;33733;52.456;13.620;2023-05-23T08:21:10;5.95;;;2.38;;
47966;SDS011;33733;52.456;13.620;2023-05-23T08:23:37;6.82;;;2.40;;
47966;SDS011;33733;52.456;13.620;2023-05-23T08:26:03;6.15;;;2.20;;
47966;SDS011;33733;52.456;13.620;2023-05-23T08:28:30;5.82;;;2.03;;
47966;SDS011;33733;52.456;13.620;2023-05-23T08:31:02;5.63;;;1.75;;
47966;SDS011;33733;52.456;13.620;2023-05-23T08:33:29;4.10;;;1.83;;
47966;SDS011;33733;52.456;13.620;2023-05-23T08:35:57;5.47;;;1.65;;
47966;SDS011;33733;52.456;13.620;2023-05-23T08:38:24;5.68;;;1.95;;
47966;SDS011;33733;52.456;13.620;2023-05-23T08:41:03;6.47;;;1.88;;
47966;SDS011;33733;52.456;13.620;2023-05-23T08:43:30;6.63;;;2.08;;
47966;SDS011;33733;52.456;13.620;2023-05-23T08:45:57;5.03;;;1.92;;
47966;SDS011;33733;52.456;13.620;2023-05-23T08:48:27;5.22;;;2.00;;
47966;SDS011;33733;52.456;13.620;2023-05-23T08:50:54;5.05;;;1.85;;
47966;SDS011;33733;52.456;13.620;2023-05-23T08:53:22;4.22;;;1.17;;
47966;SDS011;33733;52.456;13.620;2023-05-23T08:55:59;8.93;;;1.73;;
47966;SDS011;33733;52.456;13.620;2023-05-23T08:58:36;4.53;;;1.40;;
47966;SDS011;33733;52.456;13.620;2023-05-23T09:01:04;5.22;;;1.92;;
47966;SDS011;33733;52.456;13.620;2023-05-23T09:03:31;5.65;;;1.80;;
47966;SDS011;33733;52.456;13.620;2023-05-23T09:06:05;5.85;;;2.00;;
47966;SDS011;33733;52.456;13.620;2023-05-23T09:08:33;5.35;;;1.70;;
47966;SDS011;33733;52.456;13.620;2023-05-23T09:11:04;4.80;;;1.95;;
47966;SDS011;33733;52.456;13.620;2023-05-23T09:13:35;6.20;;;1.67;;
47966;SDS011;33733;52.456;13.620;2023-05-23T09:16:06;4.82;;;1.92;;
47966;SDS011;33733;52.456;13.620;2023-05-23T09:18:43;5.20;;;1.88;;
47966;SDS011;33733;52.456;13.620;2023-05-23T09:21:13;5.32;;;2.10;;
47966;SDS011;33733;52.456;13.620;2023-05-23T09:24:12;6.22;;;2.47;;
47966;SDS011;33733;52.456;13.620;2023-05-23T09:26:38;6.20;;;1.95;;
47966;SDS011;33733;52.456;13.620;2023-05-23T09:29:05;5.28;;;1.60;;
47966;SDS011;33733;52.456;13.620;2023-05-23T09:31:34;4.70;;;1.70;;
47966;SDS011;33733;52.456;13.620;2023-05-23T09:34:01;6.55;;;1.88;;
47966;SDS011;33733;52.456;13.620;2023-05-23T09:36:29;5.93;;;1.63;;
47966;SDS011;33733;52.456;13.620;2023-05-23T09:39:01;5.38;;;2.20;;
47966;SDS011;33733;52.456;13.620;2023-05-23T09:41:32;6.15;;;1.50;;
47966;SDS011;33733;52.456;13.620;2023-05-23T09:44:04;4.43;;;1.45;;
47966;SDS011;33733;52.456;13.620;2023-05-23T09:46:33;4.32;;;1.70;;
47966;SDS011;33733;52.456;13.620;2023-05-23T09:49:01;4.60;;;1.85;;
47966;SDS011;33733;52.456;13.620;2023-05-23T09:51:28;4.35;;;1.52;;
47966;SDS011;33733;52.456;13.620;2023-05-23T09:53:54;5.63;;;1.92;;
47966;SDS011;33733;52.456;13.620;2023-05-23T09:56:22;4.65;;;1.80;;
47966;SDS011;33733;52.456;13.620;2023-05-23T09:58:49;4.50;;;1.38;;
47966;SDS011;33733;52.456;13.620;2023-05-23T10:01:16;4.40;;;1.55;;
47966;SDS011;33733;52.456;13.620;2023-05-23T10:03:50;5.40;;;1.70;;
47966;SDS011;33733;52.456;13.620;2023-05-23T10:06:25;4.63;;;2.00;;
47966;SDS011;33733;52.456;13.620;2023-05-23T10:14:01;4.13;;;1.67;;
47966;SDS011;33733;52.456;13.620;2023-05-23T10:22:13;6.30;;;2.58;;
47966;SDS011;33733;52.456;13.620;2023-05-23T10:24:41;6.57;;;2.35;;
47966;SDS011;33733;52.456;13.620;2023-05-23T10:27:10;7.18;;;2.53;;
47966;SDS011;33733;52.456;13.620;2023-05-23T10:29:37;6.95;;;2.45;;
47966;SDS011;33733;52.456;13.620;2023-05-23T10:32:04;5.57;;;2.35;;
47966;SDS011;33733;52.456;13.620;2023-05-23T10:34:45;5.28;;;2.15;;
47966;SDS011;33733;52.456;13.620;2023-05-23T10:37:39;4.72;;;1.85;;
47966;SDS011;33733;52.456;13.620;2023-05-23T10:45:18;4.10;;;1.70;;
47966;SDS011;33733;52.456;13.620;2023-05-23T10:47:49;4.93;;;2.08;;
47966;SDS011;33733;52.456;13.620;2023-05-23T10:50:33;4.97;;;1.63;;
47966;SDS011;33733;52.456;13.620;2023-05-23T10:53:03;5.53;;;2.35;;
47966;SDS011;33733;52.456;13.620;2023-05-23T10:55:34;6.13;;;2.17;;
47966;SDS011;33733;52.456;13.620;2023-05-23T10:58:08;5.43;;;2.20;;
47966;SDS011;33733;52.456;13.620;2023-05-23T11:00:49;6.03;;;2.45;;
47966;SDS011;33733;52.456;13.620;2023-05-23T11:04:23;5.75;;;2.63;;
47966;SDS011;33733;52.456;13.620;2023-05-23T11:06:28;5.63;;;2.42;;
47966;SDS011;33733;52.456;13.620;2023-05-23T11:14:15;7.65;;;3.78;;
47966;SDS011;33733;52.456;13.620;2023-05-23T11:16:42;9.50;;;3.13;;
47966;SDS011;33733;52.456;13.620;2023-05-23T11:21:45;7.47;;;3.70;;
47966;SDS011;33733;52.456;13.620;2023-05-23T11:24:13;10.57;;;3.10;;
47966;SDS011;33733;52.456;13.620;2023-05-23T11:26:40;6.00;;;2.85;;
47966;SDS011;33733;52.456;13.620;2023-05-23T11:29:19;6.30;;;2.45;;
47966;SDS011;33733;52.456;13.620;2023-05-23T11:31:46;7.68;;;3.25;;
47966;SDS011;33733;52.456;13.620;2023-05-23T11:34:13;7.97;;;3.13;;
47966;SDS011;33733;52.456;13.620;2023-05-23T11:36:40;8.63;;;2.30;;
47966;SDS011;33733;52.456;13.620;2023-05-23T11:39:06;8.48;;;3.17;;
47966;SDS011;33733;52.456;13.620;2023-05-23T11:41:33;8.27;;;4.15;;
47966;SDS011;33733;52.456;13.620;2023-05-23T11:44:00;6.72;;;2.83;;
47966;SDS011;33733;52.456;13.620;2023-05-23T11:46:27;10.25;;;3.70;;
47966;SDS011;33733;52.456;13.620;2023-05-23T11:48:55;6.70;;;3.30;;
47966;SDS011;33733;52.456;13.620;2023-05-23T11:51:21;8.15;;;3.63;;
47966;SDS011;33733;52.456;13.620;2023-05-23T11:53:48;9.35;;;4.13;;
47966;SDS011;33733;52.456;13.620;2023-05-23T11:56:15;9.38;;;3.65;;
47966;SDS011;33733;52.456;13.620;2023-05-23T11:58:42;7.75;;;3.22;;
47966;SDS011;33733;52.456;13.620;2023-05-23T12:01:10;8.98;;;4.15;;
47966;SDS011;33733;52.456;13.620;2023-05-23T12:03:47;9.60;;;4.10;;
47966;SDS011;33733;52.456;13.620;2023-05-23T12:06:18;14.52;;;3.97;;
47966;SDS011;33733;52.456;13.620;2023-05-23T12:08:46;8.65;;;4.07;;
47966;SDS011;33733;52.456;13.620;2023-05-23T12:11:12;8.68;;;3.88;;
47966;SDS011;33733;52.456;13.620;2023-05-23T12:13:40;7.80;;;4.05;;
47966;SDS011;33733;52.456;13.620;2023-05-23T12:16:07;9.60;;;4.05;;
47966;SDS011;33733;52.456;13.620;2023-05-23T12:18:36;6.15;;;2.67;;
47966;SDS011;33733;52.456;13.620;2023-05-23T12:21:03;7.65;;;3.25;;
47966;SDS011;33733;52.456;13.620;2023-05-23T12:23:34;9.27;;;4.07;;
47966;SDS011;33733;52.456;13.620;2023-05-23T12:26:04;8.55;;;4.20;;
47966;SDS011;33733;52.456;13.620;2023-05-23T12:28:42;10.90;;;4.30;;
47966;SDS011;33733;52.456;13.620;2023-05-23T12:31:11;8.45;;;3.42;;
47966;SDS011;33733;52.456;13.620;2023-05-23T12:33:39;10.50;;;4.18;;
47966;SDS011;33733;52.456;13.620;2023-05-23T12:36:08;10.18;;;5.22;;
47966;SDS011;33733;52.456;13.620;2023-05-23T12:38:35;10.43;;;5.28;;
47966;SDS011;33733;52.456;13.620;2023-05-23T12:41:07;8.90;;;3.97;;
47966;SDS011;33733;52.456;13.620;2023-05-23T12:43:40;10.43;;;5.03;;
47966;SDS011;33733;52.456;13.620;2023-05-23T12:46:14;11.02;;;4.72;;
47966;SDS011;33733;52.456;13.620;2023-05-23T12:48:41;9.68;;;4.80;;
47966;SDS011;33733;52.456;13.620;2023-05-23T12:51:07;9.90;;;4.22;;
47966;SDS011;33733;52.456;13.620;2023-05-23T12:53:34;9.50;;;4.82;;
47966;SDS011;33733;52.456;13.620;2023-05-23T12:56:01;9.18;;;4.47;;
47966;SDS011;33733;52.456;13.620;2023-05-23T12:58:28;8.57;;;4.68;;
47966;SDS011;33733;52.456;13.620;2023-05-23T13:00:57;11.27;;;4.80;;
47966;SDS011;33733;52.456;13.620;2023-05-23T13:03:24;8.52;;;4.35;;
47966;SDS011;33733;52.456;13.620;2023-05-23T13:05:51;7.70;;;3.47;;
47966;SDS011;33733;52.456;13.620;2023-05-23T13:08:19;7.50;;;3.83;;
47966;SDS011;33733;52.456;13.620;2023-05-23T13:10:46;15.98;;;5.22;;
47966;SDS011;33733;52.456;13.620;2023-05-23T13:13:13;8.52;;;4.15;;
47966;SDS011;33733;52.456;13.620;2023-05-23T13:15:40;10.80;;;3.88;;
47966;SDS011;33733;52.456;13.620;2023-05-23T13:18:07;12.80;;;7.45;;
47966;SDS011;33733;52.456;13.620;2023-05-23T13:20:36;9.93;;;5.07;;
47966;SDS011;33733;52.456;13.620;2023-05-23T13:23:03;10.45;;;4.40;;
47966;SDS011;33733;52.456;13.620;2023-05-23T13:25:29;10.80;;;4.63;;
47966;SDS011;33733;52.456;13.620;2023-05-23T13:27:56;9.25;;;4.03;;
47966;SDS011;33733;52.456;13.620;2023-05-23T13:30:23;8.45;;;3.40;;
47966;SDS011;33733;52.456;13.620;2023-05-23T13:32:50;9.63;;;4.45;;
47966;SDS011;33733;52.456;13.620;2023-05-23T13:35:17;8.23;;;3.15;;
47966;SDS011;33733;52.456;13.620;2023-05-23T13:37:44;7.65;;;3.50;;
47966;SDS011;33733;52.456;13.620;2023-05-23T13:40:11;6.57;;;2.83;;
47966;SDS011;33733;52.456;13.620;2023-05-23T13:42:39;9.13;;;3.53;;
47966;SDS011;33733;52.456;13.620;2023-05-23T13:45:06;8.40;;;3.85;;
47966;SDS011;33733;52.456;13.620;2023-05-23T13:47:33;7.50;;;3.90;;
47966;SDS011;33733;52.456;13.620;2023-05-23T13:50:01;8.30;;;3.92;;
47966;SDS011;33733;52.456;13.620;2023-05-23T13:52:28;8.02;;;3.42;;
47966;SDS011;33733;52.456;13.620;2023-05-23T13:54:54;8.95;;;4.75;;
47966;SDS011;33733;52.456;13.620;2023-05-23T13:57:21;8.60;;;4.22;;
47966;SDS011;33733;52.456;13.620;2023-05-23T13:59:48;9.65;;;4.43;;
47966;SDS011;33733;52.456;13.620;2023-05-23T14:02:14;10.48;;;4.97;;
47966;SDS011;33733;52.456;13.620;2023-05-23T14:04:41;10.80;;;5.10;;
47966;SDS011;33733;52.456;13.620;2023-05-23T14:07:08;8.88;;;4.60;;
47966;SDS011;33733;52.456;13.620;2023-05-23T14:09:35;8.95;;;3.42;;
47966;SDS011;33733;52.456;13.620;2023-05-23T14:12:01;7.78;;;3.35;;
47966;SDS011;33733;52.456;13.620;2023-05-23T14:14:28;8.98;;;4.45;;
47966;SDS011;33733;52.456;13.620;2023-05-23T14:16:55;10.77;;;4.63;;
47966;SDS011;33733;52.456;13.620;2023-05-23T14:19:22;9.05;;;4.18;;
47966;SDS011;33733;52.456;13.620;2023-05-23T14:21:49;7.80;;;3.83;;
47966;SDS011;33733;52.456;13.620;2023-05-23T14:24:16;8.88;;;4.43;;
47966;SDS011;33733;52.456;13.620;2023-05-23T14:26:42;13.13;;;5.30;;
47966;SDS011;33733;52.456;13.620;2023-05-23T14:29:09;11.13;;;5.38;;
47966;SDS011;33733;52.456;13.620;2023-05-23T14:31:35;8.02;;;3.63;;
47966;SDS011;33733;52.456;13.620;2023-05-23T14:34:02;11.52;;;5.20;;
47966;SDS011;33733;52.456;13.620;2023-05-23T14:36:29;9.60;;;3.65;;
47966;SDS011;33733;52.456;13.620;2023-05-23T14:38:56;7.07;;;3.13;;
47966;SDS011;33733;52.456;13.620;2023-05-23T14:41:23;11.00;;;4.60;;
47966;SDS011;33733;52.456;13.620;2023-05-23T14:43:50;9.20;;;4.20;;
47966;SDS011;33733;52.456;13.620;2023-05-23T14:46:17;11.10;;;4.60;;
47966;SDS011;33733;52.456;13.620;2023-05-23T14:48:43;10.43;;;4.70;;
47966;SDS011;33733;52.456;13.620;2023-05-23T14:51:10;9.02;;;4.00;;
47966;SDS011;33733;52.456;13.620;2023-05-23T14:53:52;9.55;;;4.45;;
47966;SDS011;33733;52.456;13.620;2023-05-23T14:56:19;6.93;;;3.90;;
47966;SDS011;33733;52.456;13.620;2023-05-23T14:58:45;7.65;;;3.15;;
47966;SDS011;33733;52.456;13.620;2023-05-23T15:01:12;9.07;;;4.47;;
47966;SDS011;33733;52.456;13.620;2023-05-23T15:03:39;10.05;;;4.40;;
47966;SDS011;33733;52.456;13.620;2023-05-23T15:06:06;8.57;;;3.83;;
47966;SDS011;33733;52.456;13.620;2023-05-23T15:08:33;8.77;;;4.03;;
47966;SDS011;33733;52.456;13.620;2023-05-23T15:11:00;8.40;;;3.65;;
47966;SDS011;33733;52.456;13.620;2023-05-23T15:13:27;8.48;;;3.72;;
47966;SDS011;33733;52.456;13.620;2023-05-23T15:15:53;7.68;;;3.95;;
47966;SDS011;33733;52.456;13.620;2023-05-23T15:18:20;11.05;;;4.85;;
47966;SDS011;33733;52.456;13.620;2023-05-23T15:21:06;8.70;;;3.90;;
47966;SDS011;33733;52.456;13.620;2023-05-23T15:23:38;9.80;;;5.00;;